^^
Meteo Knjazevac Station Historical Data
Daily Summary for May 22, 2022 Units:  English    Metric   Both
Daily Weekly Monthly Yearly Custom
  High: Low: Average:
Temperature: 52.3 °F 31.1 °F 42.4 °F
Dew Point: 46.3 °F 30.9 °F 41.2 °F
Humidity: 99% 74.4% 96%
Wind Speed: 10.1mph 0mph 3.9mph
Wind Gust: 13mph - -
Wind- - SSW
Pressure: 29.88 in 29.66 in -
Precipitation: 0.09 in    
Historical Graphs
 
 
Tabular Data for May 22, 2022
Time Temperature Dew Point Pressure Wind Wind Speed Wind Gust Humidity Rainfall Rate (Hourly) solar Conditions
00:04 40.8 °F 40.3 °F 29.88 in SSW 4.1 mph 5 mph 98% 0.00 in 0 W/m2
00:09 40.8 °F 40.3 °F 29.88 in SSE 3.4 mph 6 mph 98% 0.00 in 0 W/m2
00:14 40.8 °F 40.3 °F 29.88 in SSE 3.7 mph 4 mph 98% 0.00 in 0 W/m2
00:19 40.7 °F 40.2 °F 29.88 in South 3.7 mph 5 mph 98% 0.00 in 0 W/m2
00:24 40.5 °F 40 °F 29.88 in South 3.7 mph 5 mph 98% 0.00 in 0 W/m2
00:29 40.5 °F 39.9 °F 29.88 in SSE 4.3 mph 5 mph 98% 0.00 in 0 W/m2
00:34 40.5 °F 39.9 °F 29.88 in SSE 2.8 mph 6 mph 98% 0.00 in 0 W/m2
00:39 40.3 °F 39.8 °F 29.88 in South 2.5 mph 4 mph 98% 0.00 in 0 W/m2
00:44 40 °F 39.5 °F 29.88 in SSW 3.8 mph 3 mph 98% 0.00 in 0 W/m2
00:49 39.7 °F 39.3 °F 29.88 in South 4.3 mph 5 mph 98.4% 0.00 in 0 W/m2
00:54 39.6 °F 39.3 °F 29.88 in SSE 3.9 mph 6 mph 99% 0.00 in 0 W/m2
00:59 39.4 °F 39.1 °F 29.88 in SSE 3.7 mph 5 mph 99% 0.00 in 0 W/m2
01:04 39.4 °F 39.1 °F 29.88 in SSE 3.7 mph 4 mph 99% 0.00 in 0 W/m2
01:09 39.5 °F 39.2 °F 29.88 in SSE 3.5 mph 5 mph 99% 0.00 in 0 W/m2
01:14 39.6 °F 39.4 °F 29.88 in South 3.4 mph 5 mph 99% 0.00 in 0 W/m2
01:19 39.7 °F 39.4 °F 29.88 in South 4.3 mph 4 mph 99% 0.00 in 0 W/m2
01:24 39.7 °F 39.5 °F 29.88 in South 4.4 mph 5 mph 99% 0.00 in 0 W/m2
01:29 39.7 °F 39.5 °F 29.88 in South 3.7 mph 6 mph 99% 0.00 in 0 W/m2
01:34 39.7 °F 39.5 °F 29.88 in SSW 3 mph 4 mph 99% 0.00 in 0 W/m2
01:39 39.7 °F 39.4 °F 29.88 in SW 3.2 mph 4 mph 99% 0.00 in 0 W/m2
01:44 39.7 °F 39.5 °F 29.88 in SSW 3.3 mph 4 mph 99% 0.00 in 0 W/m2
01:49 39.8 °F 39.6 °F 29.88 in SSE 3.5 mph 4 mph 99% 0.00 in 0 W/m2
01:54 39.7 °F 39.5 °F 29.88 in SSE 3.2 mph 5 mph 99% 0.00 in 0 W/m2
01:59 39.6 °F 39.4 °F 29.88 in SSW 2.8 mph 5 mph 99% 0.00 in 0 W/m2
02:04 39.3 °F 39 °F 29.88 in SSW 3.5 mph 3 mph 99% 0.00 in 0 W/m2
02:09 39.1 °F 38.8 °F 29.88 in SSW 3.5 mph 5 mph 99% 0.00 in 0 W/m2
02:14 39 °F 38.8 °F 29.88 in SSE 3.8 mph 5 mph 99% 0.00 in 0 W/m2
02:19 39 °F 38.8 °F 29.88 in SSE 3.4 mph 5 mph 99% 0.00 in 0 W/m2
02:24 39 °F 38.8 °F 29.88 in SSE 4.1 mph 4 mph 99% 0.00 in 0 W/m2
02:29 38.8 °F 38.6 °F 29.88 in SE 5.9 mph 6 mph 99% 0.00 in 0 W/m2
02:34 38.8 °F 38.5 °F 29.88 in SSE 5 mph 7 mph 99% 0.00 in 0 W/m2
02:39 38.7 °F 38.4 °F 29.88 in SSE 4.4 mph 6 mph 99% 0.00 in 0 W/m2
02:44 38.7 °F 38.5 °F 29.88 in South 3.9 mph 5 mph 99% 0.00 in 0 W/m2
02:49 38.6 °F 38.3 °F 29.87 in SW 3.7 mph 5 mph 99% 0.00 in 0 W/m2
02:54 38.5 °F 38.2 °F 29.87 in South 4.5 mph 6 mph 99% 0.00 in 0 W/m2
02:59 38.5 °F 38.2 °F 29.87 in SSE 2.5 mph 5 mph 99% 0.00 in 0 W/m2
03:04 38.4 °F 38.1 °F 29.88 in SSW 2.2 mph 3 mph 99% 0.00 in 0 W/m2
03:09 38.2 °F 38 °F 29.88 in West 2.2 mph 2 mph 99% 0.00 in 0 W/m2
03:14 37.9 °F 37.7 °F 29.88 in WNW 1.8 mph 2 mph 99% 0.00 in 0 W/m2
03:19 37.7 °F 37.4 °F 29.87 in WNW 1.9 mph 2 mph 99% 0.00 in 0 W/m2
03:24 37.6 °F 37.3 °F 29.87 in Calm   2 mph 99% 0.00 in 0 W/m2
03:29 37.4 °F 37.1 °F 29.87 in ESE 1.6 mph 2 mph 99% 0.00 in 0 W/m2
03:34 37.2 °F 37 °F 29.87 in East 2.2 mph 3 mph 99% 0.00 in 0 W/m2
03:39 36.8 °F 36.5 °F 29.86 in WNW 2 mph 2 mph 99% 0.00 in 0 W/m2
03:44 36.5 °F 36.2 °F 29.86 in NNW 0.5 mph 2 mph 99% 0.00 in 0 W/m2
03:49 36.2 °F 36 °F 29.86 in NNW 2.6 mph 2.5 mph 99% 0.00 in 0 W/m2
03:54 36 °F 35.8 °F 29.86 in WNW 2.8 mph 3 mph 99% 0.00 in 0 W/m2
03:59 35.7 °F 35.4 °F 29.86 in West 2.1 mph 4 mph 99% 0.00 in 0 W/m2
04:04 35.4 °F 35.2 °F 29.86 in WNW 2.1 mph 3 mph 99% 0.00 in 0 W/m2
04:09 35.1 °F 34.8 °F 29.86 in WNW 2.3 mph 2.2 mph 99% 0.00 in 0 W/m2
04:14 34.7 °F 34.4 °F 29.86 in WNW 3.1 mph 3 mph 99% 0.00 in 0 W/m2
04:19 34.4 °F 34.2 °F 29.86 in WNW 2.5 mph 3 mph 99% 0.00 in 0 W/m2
04:24 34.1 °F 33.8 °F 29.86 in WNW 3 mph 3.1 mph 99% 0.00 in 0 W/m2
04:29 33.7 °F 33.4 °F 29.86 in West 3.2 mph 4 mph 99% 0.00 in 0 W/m2
04:34 33.4 °F 33.2 °F 29.86 in West 5.3 mph 5 mph 99% 0.00 in 0 W/m2
04:39 33.4 °F 33.2 °F 29.86 in West 6 mph 7 mph 99% 0.00 in 0 W/m2
04:44 33.4 °F 33.2 °F 29.86 in West 6.3 mph 7 mph 99% 0.00 in 0 W/m2
04:49 33.4 °F 33.1 °F 29.86 in West 4 mph 7 mph 99% 0.00 in 0 W/m2
04:54 33.3 °F 33 °F 29.86 in West 3.9 mph 5 mph 99% 0.00 in 0 W/m2
04:59 33.2 °F 32.9 °F 29.86 in West 3.9 mph 6 mph 99% 0.00 in 0 W/m2
05:04 33 °F 32.7 °F 29.86 in West 3.6 mph 4 mph 99% 0.00 in 0 W/m2
05:09 32.8 °F 32.6 °F 29.86 in West 4.9 mph 6 mph 99% 0.00 in 0 W/m2
05:14 32.6 °F 32.4 °F 29.86 in West 4 mph 6 mph 99% 0.00 in 0 W/m2
05:19 32.5 °F 32.3 °F 29.86 in West 2.4 mph 5 mph 99% 0.00 in 0 W/m2
05:24 32.4 °F 32.1 °F 29.86 in West 2.9 mph 3 mph 99% 0.00 in 0 W/m2
05:29 32.3 °F 32 °F 29.87 in West 3 mph 3 mph 99% 0.00 in 0 W/m2
05:34 32.2 °F 31.9 °F 29.87 in West 3.2 mph 4 mph 99% 0.00 in 0 W/m2
05:39 32 °F 31.8 °F 29.87 in West 2.9 mph 4 mph 99% 0.00 in 0 W/m2
05:44 31.9 °F 31.7 °F 29.87 in WSW 2.3 mph 3 mph 99% 0.00 in 0 W/m2
05:49 31.8 °F 31.6 °F 29.87 in West 2.7 mph 3 mph 99% 0.00 in 0 W/m2
05:54 31.6 °F 31.4 °F 29.87 in WNW 3 mph 3 mph 99% 0.00 in 0 W/m2
05:59 31.6 °F 31.4 °F 29.87 in West 2.2 mph 3 mph 99% 0.00 in 0 W/m2
06:04 31.5 °F 31.2 °F 29.86 in West 2.7 mph 2.5 mph 99% 0.00 in 0 W/m2
06:09 31.5 °F 31.2 °F 29.86 in WNW 2.4 mph 3 mph 99% 0.00 in 0 W/m2
06:14 31.4 °F 31.1 °F 29.86 in WNW 3 mph 3.4 mph 99% 0.00 in 0 W/m2
06:19 31.3 °F 31 °F 29.86 in West 3.7 mph 4 mph 99% 0.00 in 0 W/m2
06:24 31.3 °F 31 °F 29.86 in West 4.3 mph 5 mph 99% 0.00 in 1 W/m2
06:29 31.3 °F 31 °F 29.86 in West 4.9 mph 6 mph 99% 0.00 in 3 W/m2
06:34 31.3 °F 31 °F 29.86 in West 4.8 mph 6 mph 99% 0.00 in 6 W/m2
06:39 31.3 °F 31 °F 29.86 in West 3.7 mph 5 mph 99% 0.00 in 9 W/m2
06:44 31.3 °F 31 °F 29.86 in West 3.2 mph 4 mph 99% 0.00 in 13 W/m2
06:49 31.1 °F 30.9 °F 29.86 in West 3.9 mph 4 mph 99% 0.00 in 18 W/m2
06:54 31.1 °F 30.9 °F 29.86 in West 3.5 mph 5 mph 99% 0.00 in 25 W/m2
06:59 31.1 °F 30.9 °F 29.86 in West 3.4 mph 4 mph 99% 0.00 in 36 W/m2
07:04 31.1 °F 30.9 °F 29.86 in West 3.8 mph 4 mph 99% 0.00 in 44 W/m2
07:09 31.2 °F 31 °F 29.86 in West 3.7 mph 6 mph 99% 0.00 in 56 W/m2
07:14 31.3 °F 31 °F 29.86 in West 3.3 mph 4 mph 99% 0.00 in 73 W/m2
07:19 31.3 °F 31 °F 29.86 in West 4 mph 4 mph 99% 0.00 in 84 W/m2
07:24 31.4 °F 31.2 °F 29.86 in West 6.4 mph 5.4 mph 99% 0.00 in 96 W/m2
07:29 32 °F 31.7 °F 29.86 in WSW 6.7 mph 8 mph 99% 0.00 in 108 W/m2
07:34 32.5 °F 32.3 °F 29.86 in WSW 5.6 mph 8 mph 99% 0.00 in 125 W/m2
07:39 33.2 °F 32.9 °F 29.86 in West 4.8 mph 6 mph 99% 0.00 in 132 W/m2
07:44 33.6 °F 33.4 °F 29.86 in West 4.3 mph 6 mph 99% 0.00 in 148 W/m2
07:49 34.5 °F 34.2 °F 29.86 in West 4.5 mph 5 mph 99% 0.00 in 162 W/m2
07:54 35 °F 34.7 °F 29.86 in West 5.6 mph 5.1 mph 99% 0.00 in 191 W/m2
07:59 35.2 °F 35 °F 29.86 in West 7 mph 7 mph 99% 0.00 in 212 W/m2
08:04 35.3 °F 35.1 °F 29.86 in West 6 mph 8 mph 99% 0.00 in 245 W/m2
08:09 35.7 °F 35.4 °F 29.86 in West 5.5 mph 7 mph 99% 0.00 in 245 W/m2
08:14 36.3 °F 36.1 °F 29.86 in West 3.4 mph 7 mph 99% 0.00 in 242 W/m2
08:19 37.3 °F 37 °F 29.86 in WSW 3.4 mph 4 mph 99% 0.00 in 241 W/m2
08:24 37.8 °F 37.5 °F 29.86 in WSW 3.4 mph 4 mph 99% 0.00 in 232 W/m2
08:29 38 °F 37.8 °F 29.86 in West 4 mph 5 mph 99% 0.00 in 238 W/m2
08:34 38.5 °F 38.3 °F 29.85 in WSW 3.6 mph 5 mph 99% 0.00 in 264 W/m2
08:39 39.2 °F 39 °F 29.85 in WSW 4.9 mph 4.2 mph 99% 0.00 in 283 W/m2
08:44 39.9 °F 39.6 °F 29.85 in WSW 4.8 mph 6 mph 99% 0.00 in 295 W/m2
08:49 40.7 °F 40.4 °F 29.84 in West 4.5 mph 6 mph 99% 0.00 in 319 W/m2
08:54 41.4 °F 41.2 °F 29.84 in West 4.2 mph 5 mph 99% 0.00 in 344 W/m2
08:59 42.3 °F 42 °F 29.84 in West 4.3 mph 5 mph 99% 0.00 in 375 W/m2
09:04 43.3 °F 42.7 °F 29.84 in West 4.4 mph 5 mph 97.5% 0.00 in 374 W/m2
09:09 43.6 °F 42.3 °F 29.84 in West 3.8 mph 5 mph 95.1% 0.00 in 276 W/m2
09:14 44 °F 42.4 °F 29.84 in West 4.2 mph 5 mph 94.5% 0.00 in 260 W/m2
09:19 44.1 °F 42.3 °F 29.84 in WSW 4.2 mph 5 mph 93.3% 0.00 in 242 W/m2
09:24 44.5 °F 42.7 °F 29.84 in WSW 4.6 mph 5 mph 93.4% 0.00 in 273 W/m2
09:29 44.9 °F 43.2 °F 29.84 in WSW 3.3 mph 6 mph 94% 0.00 in 251 W/m2
09:34 45.1 °F 43.2 °F 29.84 in West 3.8 mph 3 mph 93.1% 0.00 in 212 W/m2
09:39 45.1 °F 43.2 °F 29.83 in West 3 mph 5 mph 93% 0.00 in 212 W/m2
09:44 45.3 °F 43.4 °F 29.83 in West 2.8 mph 3.1 mph 93% 0.00 in 175 W/m2
09:49 45.5 °F 43.6 °F 29.83 in West 4.4 mph 5 mph 93% 0.00 in 177 W/m2
09:54 45.5 °F 43.6 °F 29.84 in West 4.5 mph 5 mph 93% 0.00 in 185 W/m2
09:59 45.7 °F 43.8 °F 29.83 in West 3.3 mph 5 mph 93% 0.00 in 182 W/m2
10:04 45.8 °F 43.9 °F 29.83 in West 4.5 mph 5 mph 93% 0.00 in 171 W/m2
10:09 46 °F 43.9 °F 29.84 in West 4.5 mph 5 mph 92.3% 0.00 in 192 W/m2
10:14 46.1 °F 43.6 °F 29.83 in West 4.5 mph 5 mph 91% 0.00 in 227 W/m2
10:19 46.4 °F 43.8 °F 29.83 in NW 2.4 mph 5 mph 90.6% 0.00 in 272 W/m2
10:24 46.9 °F 44.1 °F 29.83 in WNW 3.5 mph 3.8 mph 90.2% 0.00 in 369 W/m2
10:29 47.6 °F 44.7 °F 29.82 in WNW 3.8 mph 6 mph 89.7% 0.00 in 633 W/m2
10:34 48.4 °F 44.9 °F 29.82 in West 1.9 mph 4 mph 87.8% 0.00 in 306 W/m2
10:39 48.7 °F 45.1 °F 29.82 in WNW 1.3 mph 2 mph 87.4% 0.00 in 272 W/m2
10:44 49.1 °F 45.2 °F 29.82 in WNW 3.1 mph 3 mph 86.4% 0.00 in 321 W/m2
10:49 49.7 °F 46.3 °F 29.81 in NNW 1.8 mph 3 mph 88% 0.00 in 514 W/m2
10:54 50.5 °F 46 °F 29.81 in NE 3.2 mph 3 mph 84.4% 0.00 in 514 W/m2
10:59 50.9 °F 45.9 °F 29.80 in South 4.1 mph 4 mph 83% 0.00 in 360 W/m2
11:04 51.3 °F 45.5 °F 29.80 in SSE 6 mph 6 mph 80.8% 0.00 in 281 W/m2
11:09 51.4 °F 45.3 °F 29.80 in SE 6.5 mph 7 mph 79.4% 0.00 in 226 W/m2
11:14 51.4 °F 45.1 °F 29.79 in SE 6.7 mph 8 mph 78.9% 0.00 in 199 W/m2
11:19 51.5 °F 44.9 °F 29.79 in SE 6.7 mph 9 mph 78.2% 0.00 in 165 W/m2
11:24 51.5 °F 44.3 °F 29.79 in ESE 8.6 mph 8.3 mph 76.4% 0.00 in 146 W/m2
11:29 51.4 °F 43.5 °F 29.79 in SE 8.9 mph 11 mph 74.4% 0.00 in 159 W/m2
11:34 51.4 °F 44.1 °F 29.79 in SE 10.1 mph 12 mph 75.7% 0.00 in 162 W/m2
11:39 51.4 °F 44.1 °F 29.78 in SE 7.8 mph 12 mph 75.9% 0.00 in 153 W/m2
11:44 51.4 °F 44.5 °F 29.78 in SE 6.4 mph 10 mph 77% 0.00 in 169 W/m2
11:49 51.4 °F 44.2 °F 29.78 in SE 6.7 mph 8 mph 76.2% 0.00 in 176 W/m2
11:54 51.5 °F 44.2 °F 29.78 in ESE 6.5 mph 8 mph 75.9% 0.00 in 249 W/m2
11:59 51.8 °F 44.7 °F 29.78 in ESE 5.6 mph 7 mph 76.8% 0.00 in 249 W/m2
12:04 52 °F 44.1 °F 29.77 in ESE 6.5 mph 8 mph 74.6% 0.00 in 260 W/m2
12:09 52.1 °F 44.5 °F 29.77 in ESE 5.9 mph 7 mph 75.3% 0.00 in 254 W/m2
12:14 52.2 °F 44.4 °F 29.77 in ESE 6.8 mph 8 mph 74.6% 0.00 in 191 W/m2
12:19 52.3 °F 44.9 °F 29.77 in East 6.4 mph 8 mph 75.9% 0.00 in 93 W/m2
12:24 51.7 °F 45.6 °F 29.77 in NE 8.3 mph 9 mph 79.6% 0.00 in 99 W/m2
12:29 51.1 °F 45.5 °F 29.77 in NNE 6.5 mph 9 mph 80.9% 0.00 in 104 W/m2
12:34 50.8 °F 45.3 °F 29.76 in North 7.1 mph 7 mph 81.4% 0.00 in 115 W/m2
12:39 50.5 °F 45.6 °F 29.76 in NNE 7.4 mph 8 mph 83% 0.00 in 115 W/m2
12:44 50.3 °F 45.5 °F 29.76 in North 7.3 mph 9 mph 83.7% 0.00 in 108 W/m2
12:49 50 °F 45.4 °F 29.76 in North 7.9 mph 7 mph 84% 0.00 in 85 W/m2
12:54 49.7 °F 45.1 °F 29.76 in North 7.4 mph 9 mph 84% 0.00 in 74 W/m2
12:59 49.6 °F 45 °F 29.76 in North 9.4 mph 9 mph 84% 0.00 in 56 W/m2
13:04 49.5 °F 45 °F 29.76 in North 6.6 mph 10 mph 84.6% 0.00 in 56 W/m2
13:09 49.4 °F 44.7 °F 29.76 in North 6.8 mph 7 mph 84.1% 0.00 in 59 W/m2
13:14 49.3 °F 44.6 °F 29.76 in North 7.5 mph 8 mph 84% 0.00 in 59 W/m2
13:19 49.1 °F 44.5 °F 29.76 in North 7.9 mph 8 mph 84% 0.00 in 50 W/m2
13:24 49.1 °F 44.5 °F 29.75 in NNE 5.7 mph 8 mph 84% 0.00 in 44 W/m2
13:29 49.2 °F 44.8 °F 29.75 in NNE 4.1 mph 6 mph 84.6% 0.00 in 40 W/m2
13:34 49.1 °F 44.8 °F 29.75 in North 3.9 mph 5 mph 85.3% 0.00 in 30 W/m2
13:39 48.9 °F 44.9 °F 29.75 in North 4.1 mph 5 mph 86% 0.00 in 32 W/m2
13:44 48.8 °F 44.8 °F 29.75 in North 5 mph 5 mph 86% 0.01 in 35 W/m2
13:49 48.7 °F 45.1 °F 29.76 in North 4.1 mph 6 mph 87.4% 0.01 in 35 W/m2
13:54 48.7 °F 45.3 °F 29.76 in North 3.9 mph 5 mph 88.3% 0.01 in 34 W/m2
13:59 48.6 °F 45.5 °F 29.75 in North 3.4 mph 5 mph 89% 0.01 in 34 W/m2
14:04 48.4 °F 45.5 °F 29.75 in North 5 mph 4 mph 89.7% 0.01 in 31 W/m2
14:09 48.2 °F 45.2 °F 29.75 in North 3.4 mph 6 mph 89.6% 0.02 in 31 W/m2
14:14 48 °F 45.2 °F 29.75 in North 3.6 mph 5 mph 89.9% 0.02 in 31 W/m2
14:19 47.9 °F 45.1 °F 29.75 in North 3.1 mph 5 mph 90.2% 0.02 in 29 W/m2
14:24 47.8 °F 45.6 °F 29.75 in North 2.1 mph 3 mph 92.2% 0.02 in 29 W/m2
14:29 47.7 °F 45.8 °F 29.75 in North 2.1 mph 2 mph 93.2% 0.02 in 29 W/m2
14:34 47.7 °F 46.1 °F 29.75 in North 3 mph 2 mph 94.4% 0.02 in 28 W/m2
14:39 47.5 °F 46.1 °F 29.75 in NNW 2.3 mph 3 mph 95% 0.02 in 21 W/m2
14:44 47.2 °F 45.8 °F 29.75 in NNW 2.8 mph 2.2 mph 95% 0.02 in 19 W/m2
14:49 47.1 °F 46 °F 29.75 in ESE 1.7 mph 3 mph 95.9% 0.02 in 17 W/m2
14:54 46.9 °F 46.1 °F 29.75 in NNE 2.6 mph 3 mph 96.8% 0.02 in 15 W/m2
14:59 46.8 °F 46 °F 29.75 in North 3.7 mph 4 mph 96.9% 0.02 in 15 W/m2
15:04 46.7 °F 45.6 °F 29.75 in NNE 4.5 mph 5 mph 96% 0.03 in 12 W/m2
15:09 46.5 °F 45.4 °F 29.75 in NE 6.5 mph 6 mph 96% 0.03 in 14 W/m2
15:14 46.4 °F 45.4 °F 29.75 in NNE 5.1 mph 7 mph 96.4% 0.03 in 17 W/m2
15:19 46.2 °F 45.1 °F 29.75 in NNE 3.9 mph 6 mph 96% 0.03 in 15 W/m2
15:24 46.1 °F 45.3 °F 29.75 in NNE 5.6 mph 7 mph 96.7% 0.03 in 10 W/m2
15:29 46.1 °F 45.3 °F 29.75 in NNE 4.7 mph 7 mph 97.2% 0.03 in 6 W/m2
15:34 46 °F 45.5 °F 29.75 in NNE 3.2 mph 6 mph 98% 0.03 in 3 W/m2
15:39 46 °F 45.6 °F 29.75 in NNE 3.4 mph 5 mph 98.2% 0.03 in 2 W/m2
15:44 45.9 °F 45.6 °F 29.75 in North 2.2 mph 5 mph 99% 0.02 in 2 W/m2
15:49 45.8 °F 45.5 °F 29.75 in NNW 2.2 mph 2 mph 99% 0.02 in 2 W/m2
15:54 45.5 °F 45.2 °F 29.74 in SE 2.9 mph 3.4 mph 99% 0.02 in 1 W/m2
15:59 45.4 °F 45.1 °F 29.74 in ENE 3.3 mph 4 mph 99% 0.01 in 0 W/m2
16:04 45.3 °F 45.1 °F 29.74 in NNE 5.6 mph 5 mph 99% 0.01 in 0 W/m2
16:09 45.1 °F 44.9 °F 29.74 in North 5.4 mph 7 mph 99% 0.00 in 0 W/m2
16:14 45.1 °F 44.9 °F 29.74 in North 4.4 mph 6 mph 99% 0.00 in 0 W/m2
16:19 45.1 °F 44.9 °F 29.74 in North 3.9 mph 6 mph 99% 0.00 in 0 W/m2
16:24 45.1 °F 44.9 °F 29.74 in North 4.7 mph 5 mph 99% 0.00 in 0 W/m2
16:29 45.1 °F 44.9 °F 29.73 in North 5.3 mph 6 mph 99% 0.00 in 0 W/m2
16:34 45 °F 44.7 °F 29.73 in North 6.4 mph 6 mph 99% 0.00 in 0 W/m2
16:39 45 °F 44.7 °F 29.73 in North 8 mph 9 mph 99% 0.00 in 0 W/m2
16:44 44.8 °F 44.5 °F 29.73 in North 7.8 mph 10 mph 99% 0.00 in 0 W/m2
16:49 44.8 °F 44.5 °F 29.73 in North 7.3 mph 8 mph 99% 0.00 in 0 W/m2
16:54 44.8 °F 44.5 °F 29.73 in North 7.8 mph 8 mph 99% 0.00 in 0 W/m2
16:59 44.6 °F 44.3 °F 29.73 in North 5.7 mph 9 mph 99% 0.00 in 0 W/m2
17:04 44.6 °F 44.3 °F 29.72 in North 5.3 mph 7 mph 99% 0.00 in 0 W/m2
17:09 44.6 °F 44.3 °F 29.72 in North 3.7 mph 6 mph 99% 0.00 in 0 W/m2
17:14 44.6 °F 44.3 °F 29.72 in North 3.9 mph 6 mph 99% 0.00 in 0 W/m2
17:19 44.6 °F 44.3 °F 29.72 in North 4.8 mph 6 mph 99% 0.00 in 0 W/m2
17:24 44.6 °F 44.3 °F 29.72 in NNW 2.6 mph 6 mph 99% 0.00 in 0 W/m2
17:29 44.6 °F 44.3 °F 29.71 in NNW 3.7 mph 3.1 mph 99% 0.00 in 0 W/m2
17:34 44.6 °F 44.3 °F 29.71 in NNW 6 mph 8 mph 99% 0.00 in 0 W/m2
17:39 44.6 °F 44.3 °F 29.72 in North 6.5 mph 8 mph 99% 0.00 in 0 W/m2
17:44 44.6 °F 44.3 °F 29.72 in North 4.2 mph 8 mph 99% 0.00 in 0 W/m2
17:49 44.6 °F 44.3 °F 29.71 in NNW 6.1 mph 7 mph 99% 0.00 in 0 W/m2
17:54 44.7 °F 44.4 °F 29.71 in North 4.2 mph 8 mph 99% 0.00 in 0 W/m2
17:59 44.8 °F 44.5 °F 29.70 in North 5.1 mph 9 mph 99% 0.00 in 0 W/m2
18:04 44.8 °F 44.5 °F 29.71 in North 6.6 mph 5 mph 99% 0.00 in 0 W/m2
18:09 44.8 °F 44.5 °F 29.71 in NNW 7 mph 8 mph 99% 0.00 in 0 W/m2
18:14 44.8 °F 44.5 °F 29.71 in North 4.8 mph 8 mph 99% 0.00 in 0 W/m2
18:19 44.9 °F 44.6 °F 29.70 in North 5 mph 7 mph 99% 0.00 in 0 W/m2
18:24 44.8 °F 44.5 °F 29.70 in NNE 5 mph 6 mph 99% 0.00 in 0 W/m2
18:29 44.8 °F 44.5 °F 29.70 in NNE 9 mph 7.8 mph 99% 0.00 in 0 W/m2
18:34 44.8 °F 44.5 °F 29.70 in North 5.7 mph 13 mph 99% 0.00 in 0 W/m2
18:39 44.7 °F 44.4 °F 29.70 in NW 2.7 mph 6 mph 99% 0.00 in 0 W/m2
18:44 44.5 °F 44.3 °F 29.70 in SW 3.7 mph 3.4 mph 99% 0.00 in 0 W/m2
18:49 44.4 °F 44.2 °F 29.70 in NNW 3.3 mph 6 mph 99% 0.00 in 0 W/m2
18:54 44.4 °F 44.2 °F 29.70 in North 4.2 mph 4 mph 99% 0.00 in 0 W/m2
18:59 44.3 °F 44.1 °F 29.70 in ESE 3.5 mph 5 mph 99% 0.00 in 0 W/m2
19:01 44.2 °F 44 °F 29.70 in SE 2.6 mph 4 mph 99% 0.00 in 0 W/m2
19:10 44.2 °F 44 °F 29.70 in North 2 mph 4 mph 99% 0.00 in 0 W/m2
19:25 44.2 °F 44 °F 29.70 in West 2 mph 3 mph 99% 0.00 in 0 W/m2
19:30 44.2 °F 44 °F 29.70 in NNE 1 mph 3 mph 99% 0.00 in 0 W/m2
19:35 44.4 °F 44.2 °F 29.70 in NNE 2 mph 4 mph 99% 0.00 in 0 W/m2
19:40 44.4 °F 44.2 °F 29.70 in North 1 mph 2 mph 99% 0.00 in 0 W/m2
19:49 44.3 °F 44.1 °F 29.70 in SE 2.9 mph 1.6 mph 99% 0.00 in 0 W/m2
19:54 44.2 °F 44 °F 29.70 in SSE 2.1 mph 4 mph 99% 0.00 in 0 W/m2
19:59 44.1 °F 43.8 °F 29.70 in South 2.2 mph 2.2 mph 99% 0.00 in 0 W/m2
20:04 44.1 °F 43.8 °F 29.69 in SSW 2.6 mph 3 mph 99% 0.00 in 0 W/m2
20:09 44.1 °F 43.8 °F 29.69 in SW 1.8 mph 3 mph 99% 0.01 in 0 W/m2
20:14 44.1 °F 43.8 °F 29.70 in SW 2.3 mph 3 mph 99% 0.01 in 0 W/m2
20:19 44 °F 43.7 °F 29.69 in South 1.4 mph 3 mph 99% 0.03 in 0 W/m2
20:24 44.1 °F 43.8 °F 29.69 in SW 3 mph 2.5 mph 99% 0.04 in 0 W/m2
20:29 44.1 °F 43.8 °F 29.69 in West 3.4 mph 3 mph 99% 0.04 in 0 W/m2
20:34 44.1 °F 43.8 °F 29.69 in WSW 1 mph 4 mph 99% 0.04 in 0 W/m2
20:39 44.1 °F 43.8 °F 29.68 in WSW 1.6 mph 2 mph 99% 0.05 in 0 W/m2
20:44 44.1 °F 43.8 °F 29.68 in West 0.9 mph 2 mph 99% 0.05 in 0 W/m2
20:49 44 °F 43.7 °F 29.68 in West 1.9 mph 2 mph 99% 0.05 in 0 W/m2
20:54 43.9 °F 43.6 °F 29.68 in WNW 0.4 mph 2 mph 99% 0.05 in 0 W/m2
20:59 43.9 °F 43.6 °F 29.68 in NNW 1 mph 1 mph 99% 0.05 in 0 W/m2
21:04 44.1 °F 43.8 °F 29.68 in NNW 1.5 mph 2 mph 99% 0.05 in 0 W/m2
21:09 44.1 °F 43.8 °F 29.68 in NW 2.4 mph 3 mph 99% 0.04 in 0 W/m2
21:14 44 °F 43.7 °F 29.68 in WNW 1.3 mph 3 mph 99% 0.04 in 0 W/m2
21:19 43.9 °F 43.6 °F 29.68 in NNW 0.3 mph 2 mph 99% 0.03 in 0 W/m2
21:24 44 °F 43.7 °F 29.68 in NNW 0.8 mph 2 mph 99% 0.02 in 0 W/m2
21:29 43.9 °F 43.6 °F 29.68 in NNW 0.8 mph 2 mph 99% 0.01 in 0 W/m2
21:34 44 °F 43.8 °F 29.68 in North 0.4 mph 2 mph 99% 0.00 in 0 W/m2
21:39 44.1 °F 43.8 °F 29.68 in NNW 2.2 mph 3 mph 99% 0.00 in 0 W/m2
21:44 44.1 °F 43.8 °F 29.68 in NNW 3.2 mph 3 mph 99% 0.00 in 0 W/m2
21:49 44.1 °F 43.8 °F 29.68 in NNW 2.2 mph 3 mph 99% 0.00 in 0 W/m2
21:54 44.1 °F 43.8 °F 29.68 in North 2 mph 2 mph 99% 0.00 in 0 W/m2
21:59 44.1 °F 43.8 °F 29.68 in NNW 2.6 mph 2.2 mph 99% 0.00 in 0 W/m2
22:04 44.1 °F 43.8 °F 29.68 in North 1.2 mph 3 mph 99% 0.00 in 0 W/m2
22:09 44.1 °F 43.8 °F 29.67 in NNW 2.5 mph 2 mph 99% 0.00 in 0 W/m2
22:14 44.1 °F 43.8 °F 29.67 in ENE 2.1 mph 3 mph 99% 0.00 in 0 W/m2
22:19 44.1 °F 43.8 °F 29.67 in ESE 2.5 mph 3 mph 99% 0.00 in 0 W/m2
22:24 44.1 °F 43.8 °F 29.67 in NNE 1.6 mph 3 mph 99% 0.00 in 0 W/m2
22:29 44.1 °F 43.8 °F 29.67 in North 1.7 mph 2 mph 99% 0.00 in 0 W/m2
22:34 44.1 °F 43.8 °F 29.67 in North 2.3 mph 3 mph 99% 0.00 in 0 W/m2
22:39 44.1 °F 43.8 °F 29.67 in NNE 1.9 mph 3 mph 99% 0.00 in 0 W/m2
22:44 44.1 °F 43.8 °F 29.67 in NNE 2.5 mph 2 mph 99% 0.00 in 0 W/m2
22:49 44.1 °F 43.8 °F 29.67 in SE 3.1 mph 3 mph 99% 0.00 in 0 W/m2
22:54 44.1 °F 43.8 °F 29.67 in NE 4.6 mph 4.2 mph 99% 0.00 in 0 W/m2
22:59 44.2 °F 43.9 °F 29.66 in North 5.5 mph 8 mph 99% 0.00 in 0 W/m2
23:04 44.2 °F 44 °F 29.67 in NNW 3.8 mph 6 mph 99% 0.00 in 0 W/m2
23:09 44.4 °F 44.2 °F 29.68 in NNW 4.6 mph 4 mph 99% 0.00 in 0 W/m2
23:14 44.4 °F 44.2 °F 29.68 in SSE 3.5 mph 6 mph 99% 0.00 in 0 W/m2
23:19 44.4 °F 44.2 °F 29.68 in NE 4.3 mph 5 mph 99% 0.00 in 0 W/m2
23:24 44.6 °F 44.3 °F 29.68 in North 0.8 mph 7 mph 99% 0.00 in 0 W/m2
23:29 44.6 °F 44.3 °F 29.68 in NNE 3 mph 2.9 mph 99% 0.00 in 0 W/m2
23:34 44.6 °F 44.3 °F 29.67 in NNE 2.7 mph 4 mph 99% 0.00 in 0 W/m2
23:39 44.5 °F 44.3 °F 29.67 in NNE 4.3 mph 4 mph 99% 0.00 in 0 W/m2
23:44 44.5 °F 44.2 °F 29.67 in NNE 2.9 mph 6 mph 99% 0.00 in 0 W/m2
23:49 44.4 °F 44.2 °F 29.67 in NNE 2.3 mph 3 mph 99% 0.00 in 0 W/m2
23:54 44.4 °F 44.2 °F 29.67 in NE 2.5 mph 3 mph 99% 0.00 in 0 W/m2
23:59 44.4 °F 44.2 °F 29.67 in NNE 2.1 mph 3 mph 99% 0.00 in 0 W/m2
Knjazevac, Serbia
Compliments of Weather Underground - 4 mb